Time;durP1;ratioP1;P1;durP2;ratioP2;P2;SDS_P1;SDS_P2;PMS_P1;PMS_P2;Temp;Humidity;BMP_temperature;BMP_pressure;BME280_temperature;BME280_humidity;BME280_pressure;Samples;Min_cycle;Max_cycle;Signal;HPM_P1;HPM_P2
2023/01/05 00:01:29;;;;;;;1.52;0.30;;;11.30;99.90;;;;;;4988395;28;20190;-85
2023/01/05 00:03:55;;;;;;;0.77;0.60;;;11.30;99.90;;;;;;4983408;28;20669;-84
2023/01/05 00:06:20;;;;;;;3.33;0.80;;;11.30;99.90;;;;;;4974318;28;20180;-83
2023/01/05 00:08:46;;;;;;;0.40;0.33;;;11.20;99.90;;;;;;4988586;28;20203;-83
2023/01/05 00:22:31;;;;;;;0.95;0.85;;;11.10;99.90;;;;;;4991493;28;20699;-84
2023/01/05 00:25:07;;;;;;;0.70;0.60;;;11.10;99.90;;;;;;4990965;28;20199;-86
2023/01/05 00:27:33;;;;;;;0.68;0.68;;;11.20;99.90;;;;;;4990673;28;20225;-85
2023/01/05 00:29:59;;;;;;;0.60;0.40;;;11.20;99.90;;;;;;4992665;28;20187;-84
2023/01/05 00:32:25;;;;;;;0.90;0.60;;;11.20;99.90;;;;;;4986593;28;20307;-86
2023/01/05 00:34:54;;;;;;;0.60;0.60;;;11.20;99.90;;;;;;4990089;28;20654;-81
2023/01/05 00:37:24;;;;;;;1.38;0.50;;;11.20;99.90;;;;;;4981879;28;20198;-85
2023/01/05 00:39:50;;;;;;;0.90;0.52;;;11.20;99.90;;;;;;4991106;28;20179;-85
2023/01/05 00:42:16;;;;;;;0.60;0.50;;;11.20;99.90;;;;;;4990998;28;20218;-86
2023/01/05 00:44:41;;;;;;;0.93;0.43;;;11.30;99.90;;;;;;4990192;28;20207;-84
2023/01/05 00:47:07;;;;;;;1.30;0.50;;;11.30;99.90;;;;;;4987002;28;20289;-85
2023/01/05 00:49:32;;;;;;;0.70;0.40;;;11.40;99.90;;;;;;5009332;28;20182;-85
2023/01/05 00:51:59;;;;;;;0.60;0.60;;;11.40;99.90;;;;;;4988720;28;20203;-82
2023/01/05 00:54:24;;;;;;;2.15;0.80;;;11.40;99.90;;;;;;4988289;28;20187;-84
2023/01/05 00:56:50;;;;;;;0.77;0.70;;;11.40;99.90;;;;;;4976819;28;20183;-85
2023/01/05 00:59:16;;;;;;;1.37;0.50;;;11.50;99.90;;;;;;4988172;28;20190;-84
2023/01/05 01:01:46;;;;;;;0.80;0.80;;;11.50;99.90;;;;;;5006655;28;20214;-84
2023/01/05 01:04:12;;;;;;;0.50;0.40;;;11.50;99.90;;;;;;4983338;28;20199;-86
2023/01/05 01:06:38;;;;;;;0.77;0.60;;;11.40;99.90;;;;;;4985211;28;20183;-82
2023/01/05 01:09:04;;;;;;;0.60;0.50;;;11.40;99.90;;;;;;4985202;28;20207;-86
2023/01/05 01:11:29;;;;;;;0.90;0.80;;;11.80;99.90;;;;;;4977150;28;20211;-84
2023/01/05 01:13:55;;;;;;;0.70;0.70;;;11.50;99.90;;;;;;4989355;28;20193;-83
2023/01/05 01:16:20;;;;;;;1.03;0.30;;;11.40;99.90;;;;;;4969591;28;20202;-84
2023/01/05 01:18:46;;;;;;;0.93;0.90;;;11.50;99.90;;;;;;4989993;28;20209;-83
2023/01/05 01:21:12;;;;;;;0.80;0.80;;;11.50;99.90;;;;;;4987137;28;20180;-84
2023/01/05 01:23:37;;;;;;;1.13;0.40;;;11.50;99.90;;;;;;4979707;28;20294;-81
2023/01/05 01:26:12;;;;;;;0.50;0.40;;;11.50;99.90;;;;;;4983392;28;20187;-80
2023/01/05 01:28:38;;;;;;;0.73;0.65;;;11.60;99.90;;;;;;5008945;28;20219;-87
2023/01/05 01:31:04;;;;;;;0.50;0.50;;;11.60;99.90;;;;;;5001787;28;20206;-85
2023/01/05 01:33:31;;;;;;;0.70;0.70;;;11.60;99.90;;;;;;4992279;28;20437;-84
2023/01/05 01:35:57;;;;;;;0.63;0.43;;;11.60;99.90;;;;;;5004139;28;20609;-85
2023/01/05 01:38:23;;;;;;;1.20;0.60;;;11.60;99.90;;;;;;4987989;28;20203;-85
2023/01/05 01:40:49;;;;;;;0.70;0.50;;;11.60;99.90;;;;;;4988691;28;20461;-84
2023/01/05 01:43:17;;;;;;;0.50;0.50;;;11.60;99.90;;;;;;4989711;28;20187;-89
2023/01/05 01:45:43;;;;;;;0.50;0.50;;;11.60;99.90;;;;;;4988869;28;20427;-86
2023/01/05 01:48:13;;;;;;;0.40;0.40;;;11.60;99.90;;;;;;4988669;28;20266;-85
2023/01/05 01:50:53;;;;;;;0.50;0.40;;;11.60;99.90;;;;;;4991522;28;20179;-86
2023/01/05 01:53:32;;;;;;;0.65;0.60;;;11.60;99.90;;;;;;4985221;28;20217;-84
2023/01/05 01:56:01;;;;;;;0.60;0.40;;;11.60;99.90;;;;;;5003389;28;20222;-83
2023/01/05 01:58:29;;;;;;;0.50;0.40;;;11.60;99.90;;;;;;4990033;28;20211;-81
2023/01/05 02:00:56;;;;;;;3.80;0.60;;;11.60;99.90;;;;;;4987729;28;20203;-86
2023/01/05 02:03:22;;;;;;;0.60;0.60;;;11.60;99.90;;;;;;4986762;28;20539;-81
2023/01/05 02:05:47;;;;;;;2.00;1.30;;;11.60;99.90;;;;;;4999334;28;20249;-86
2023/01/05 02:08:14;;;;;;;1.07;1.00;;;11.60;99.90;;;;;;4987483;28;20723;-83
2023/01/05 02:11:01;;;;;;;0.52;0.50;;;11.70;99.90;;;;;;4971564;28;20195;-86
2023/01/05 02:13:38;;;;;;;1.95;0.50;;;11.70;99.90;;;;;;4985768;28;20283;-84
2023/01/05 02:16:24;;;;;;;0.60;0.60;;;11.70;99.90;;;;;;4996211;28;20174;-80
2023/01/05 02:19:05;;;;;;;0.50;0.32;;;11.70;99.90;;;;;;5002669;28;20275;-84
2023/01/05 02:21:52;;;;;;;0.60;0.57;;;11.70;99.90;;;;;;4992214;28;21009;-84
2023/01/05 02:24:36;;;;;;;0.40;0.30;;;11.70;99.90;;;;;;4986948;28;20195;-84
2023/01/05 02:27:39;;;;;;;0.90;0.47;;;11.80;99.90;;;;;;4985079;28;20189;-81
2023/01/05 02:30:41;;;;;;;0.82;0.82;;;11.80;99.90;;;;;;4976924;28;20202;-84
2023/01/05 02:33:31;;;;;;;0.40;0.30;;;11.80;99.90;;;;;;4988220;28;20232;-84
2023/01/05 02:36:22;;;;;;;0.50;0.38;;;11.80;99.90;;;;;;4985349;28;20202;-85
2023/01/05 02:38:53;;;;;;;0.40;0.40;;;11.80;99.90;;;;;;4976159;28;20208;-85
2023/01/05 02:41:24;;;;;;;0.50;0.40;;;12.00;99.90;;;;;;4984272;28;20183;-87
2023/01/05 02:43:50;;;;;;;0.40;0.30;;;11.90;99.90;;;;;;4979682;28;20218;-78
2023/01/05 02:46:17;;;;;;;0.40;0.30;;;11.90;99.90;;;;;;5007764;28;20200;-82
2023/01/05 02:48:46;;;;;;;0.40;0.30;;;11.90;99.90;;;;;;4988047;28;20451;-82
2023/01/05 02:51:16;;;;;;;0.40;0.38;;;11.90;99.90;;;;;;4975123;28;20187;-84
2023/01/05 02:53:47;;;;;;;0.40;0.32;;;11.90;99.90;;;;;;4984803;28;20206;-82
2023/01/05 02:56:22;;;;;;;0.40;0.30;;;11.90;99.90;;;;;;4985098;28;20195;-83
2023/01/05 02:58:56;;;;;;;0.50;0.30;;;11.90;99.90;;;;;;4973974;28;20211;-84
2023/01/05 03:01:31;;;;;;;0.50;0.30;;;11.90;99.90;;;;;;4975158;28;20191;-83
2023/01/05 03:04:02;;;;;;;0.40;0.30;;;12.10;99.90;;;;;;4985154;28;20285;-83
2023/01/05 03:06:45;;;;;;;0.50;0.35;;;11.80;99.90;;;;;;4986172;28;20189;-83
2023/01/05 03:09:13;;;;;;;0.30;0.30;;;11.80;99.90;;;;;;4981897;28;20182;-84
2023/01/05 03:14:56;;;;;;;0.50;0.40;;;11.70;99.90;;;;;;4963670;28;20202;-85
2023/01/05 03:17:31;;;;;;;0.40;0.30;;;11.70;99.90;;;;;;4984881;28;20639;-80
2023/01/05 03:19:57;;;;;;;0.40;0.32;;;11.60;99.90;;;;;;4974670;28;20634;-83
2023/01/05 03:37:03;;;;;;;0.85;0.50;;;11.50;99.90;;;;;;4982342;28;20388;-87
2023/01/05 03:39:31;;;;;;;0.70;0.40;;;11.50;99.90;;;;;;4998241;28;20262;-86
2023/01/05 03:41:57;;;;;;;0.93;0.82;;;11.50;99.90;;;;;;4983272;28;20663;-84
2023/01/05 03:44:23;;;;;;;1.30;0.30;;;11.50;99.90;;;;;;4972706;28;20539;-84
2023/01/05 03:46:48;;;;;;;0.80;0.80;;;11.50;99.90;;;;;;4973213;28;20218;-84
2023/01/05 03:49:16;;;;;;;0.40;0.37;;;11.50;99.90;;;;;;4982468;28;20210;-84
2023/01/05 03:51:42;;;;;;;0.50;0.40;;;11.50;99.90;;;;;;4999651;28;20882;-81
2023/01/05 03:54:07;;;;;;;0.53;0.40;;;11.50;99.90;;;;;;4998763;28;20190;-81
2023/01/05 03:56:34;;;;;;;0.40;0.30;;;11.60;99.90;;;;;;4966155;28;20454;-85
2023/01/05 03:59:00;;;;;;;0.82;0.40;;;11.50;99.90;;;;;;5011009;28;20203;-83
2023/01/05 04:01:25;;;;;;;0.40;0.40;;;11.60;99.90;;;;;;4998965;28;20187;-83
2023/01/05 04:03:51;;;;;;;0.40;0.30;;;11.60;99.90;;;;;;4998014;28;20748;-83
2023/01/05 04:06:16;;;;;;;0.70;0.70;;;11.60;99.90;;;;;;4983845;28;20183;-81
2023/01/05 04:08:42;;;;;;;0.70;0.40;;;11.60;99.90;;;;;;4983983;28;20205;-85
2023/01/05 04:11:16;;;;;;;0.40;0.30;;;11.50;99.90;;;;;;4999245;28;20186;-84
2023/01/05 04:13:42;;;;;;;0.98;0.40;;;11.50;99.90;;;;;;4982484;28;20179;-82
2023/01/05 04:16:08;;;;;;;0.40;0.30;;;11.50;99.90;;;;;;4984216;28;20258;-84
2023/01/05 04:18:34;;;;;;;0.50;0.30;;;11.40;99.90;;;;;;4984525;28;20203;-85
2023/01/05 04:20:59;;;;;;;3.63;0.30;;;11.40;99.90;;;;;;4974555;28;20599;-87
2023/01/05 04:23:25;;;;;;;0.83;0.30;;;11.30;99.90;;;;;;4988965;28;20430;-83
2023/01/05 04:25:50;;;;;;;0.40;0.30;;;11.30;99.90;;;;;;4977511;28;20259;-82
2023/01/05 04:28:16;;;;;;;0.40;0.30;;;11.30;99.90;;;;;;4971658;28;20219;-84
2023/01/05 04:30:47;;;;;;;1.70;1.00;;;11.30;99.90;;;;;;4970831;28;20218;-83
2023/01/05 04:33:13;;;;;;;0.40;0.30;;;11.30;99.90;;;;;;4976763;28;20215;-84
2023/01/05 04:35:38;;;;;;;0.67;0.57;;;11.20;99.90;;;;;;4986067;28;20195;-83
2023/01/05 04:38:04;;;;;;;0.80;0.60;;;11.20;99.90;;;;;;4982881;28;20547;-87
2023/01/05 04:40:29;;;;;;;0.40;0.30;;;11.20;99.90;;;;;;4984661;28;20179;-84
2023/01/05 04:42:55;;;;;;;0.80;0.80;;;11.10;99.90;;;;;;4974443;28;20188;-86
2023/01/05 04:45:20;;;;;;;0.50;0.40;;;11.10;99.90;;;;;;4982579;28;21051;-84
2023/01/05 04:47:46;;;;;;;3.80;0.60;;;11.00;99.90;;;;;;4981778;28;20211;-86
2023/01/05 04:50:12;;;;;;;16.23;1.27;;;11.00;99.90;;;;;;4982800;28;20815;-81
2023/01/05 04:52:37;;;;;;;1.40;1.30;;;11.00;99.90;;;;;;4998475;28;20195;-88
2023/01/05 04:55:03;;;;;;;0.40;0.30;;;11.00;99.90;;;;;;4974521;28;20189;-85
2023/01/05 04:57:29;;;;;;;0.70;0.52;;;11.00;99.90;;;;;;4973853;28;20497;-82
2023/01/05 04:59:54;;;;;;;0.50;0.40;;;11.10;99.90;;;;;;4981322;28;20187;-84
2023/01/05 05:02:21;;;;;;;0.90;0.50;;;11.10;99.90;;;;;;4998690;28;20175;-84
2023/01/05 05:04:46;;;;;;;0.70;0.50;;;11.00;99.90;;;;;;4981073;28;20179;-84
2023/01/05 05:07:12;;;;;;;1.47;0.50;;;11.00;99.90;;;;;;4984149;28;20206;-87
2023/01/05 05:09:37;;;;;;;1.80;0.60;;;11.00;99.90;;;;;;4981241;28;20233;-81
2023/01/05 05:12:03;;;;;;;1.00;0.53;;;11.00;99.90;;;;;;4973835;28;20207;-82
2023/01/05 05:14:29;;;;;;;0.50;0.40;;;11.00;99.90;;;;;;4987807;28;20230;-83
2023/01/05 05:16:54;;;;;;;1.57;1.47;;;11.00;99.90;;;;;;4982199;28;20191;-82
2023/01/05 05:19:20;;;;;;;1.80;0.43;;;11.00;99.90;;;;;;4990423;28;20216;-82
2023/01/05 05:21:45;;;;;;;0.83;0.47;;;11.00;99.90;;;;;;5000098;28;20641;-83
2023/01/05 05:24:11;;;;;;;1.27;0.47;;;11.00;99.90;;;;;;4987060;28;20183;-84
2023/01/05 05:26:36;;;;;;;0.50;0.50;;;11.00;99.90;;;;;;4984890;28;20212;-87
2023/01/05 05:29:02;;;;;;;1.33;0.50;;;11.00;99.90;;;;;;4984090;28;20245;-85
2023/01/05 05:31:27;;;;;;;0.90;0.53;;;11.00;99.90;;;;;;5000223;28;20182;-85
2023/01/05 05:33:53;;;;;;;1.40;0.50;;;10.90;99.90;;;;;;4985594;28;20569;-83
2023/01/05 05:36:19;;;;;;;0.70;0.70;;;10.90;99.90;;;;;;4984781;28;20206;-86
2023/01/05 05:38:44;;;;;;;0.80;0.50;;;10.80;99.90;;;;;;4985029;28;20245;-86
2023/01/05 05:41:10;;;;;;;1.13;0.47;;;10.80;99.90;;;;;;4990679;28;20170;-82
2023/01/05 05:43:35;;;;;;;1.70;0.60;;;10.80;99.90;;;;;;4988816;28;20228;-83
2023/01/05 05:46:01;;;;;;;2.33;0.83;;;10.80;99.90;;;;;;4989281;28;20223;-83
2023/01/05 05:48:26;;;;;;;1.63;0.63;;;10.80;99.90;;;;;;4984254;28;20241;-85
2023/01/05 05:50:52;;;;;;;1.77;0.63;;;10.80;99.90;;;;;;4983909;28;20242;-85
2023/01/05 05:53:18;;;;;;;5.30;1.20;;;10.70;99.90;;;;;;4984270;28;20199;-85
2023/01/05 05:55:48;;;;;;;1.10;0.70;;;10.70;99.90;;;;;;4982679;28;20282;-82
2023/01/05 05:58:13;;;;;;;1.25;0.50;;;10.70;99.90;;;;;;4983704;28;20211;-83
2023/01/05 06:00:39;;;;;;;6.33;0.77;;;10.60;99.90;;;;;;4967351;28;20704;-86
2023/01/05 06:03:05;;;;;;;2.58;0.90;;;10.60;99.90;;;;;;4981610;28;20237;-84
2023/01/05 06:05:30;;;;;;;1.23;1.00;;;10.60;99.90;;;;;;4998072;28;20668;-85
2023/01/05 06:07:56;;;;;;;4.03;0.80;;;10.60;99.90;;;;;;4998011;28;20218;-83
2023/01/05 06:10:21;;;;;;;3.17;0.80;;;10.60;99.90;;;;;;4972918;28;20228;-86
2023/01/05 06:12:47;;;;;;;9.70;1.30;;;10.60;99.90;;;;;;4982480;28;20212;-80
2023/01/05 06:15:13;;;;;;;4.00;1.30;;;10.50;99.90;;;;;;4965480;28;20179;-86
2023/01/05 06:17:38;;;;;;;3.80;1.17;;;10.50;99.90;;;;;;4998503;28;20210;-86
2023/01/05 06:20:05;;;;;;;2.80;1.03;;;10.50;99.90;;;;;;4972649;28;20249;-82
2023/01/05 06:22:30;;;;;;;4.00;1.58;;;10.50;99.90;;;;;;4982759;28;20194;-84
2023/01/05 06:24:56;;;;;;;7.40;1.30;;;10.50;99.90;;;;;;4979924;28;20188;-83
2023/01/05 06:27:22;;;;;;;4.03;1.70;;;10.40;99.90;;;;;;5005172;28;20191;-82
2023/01/05 06:29:47;;;;;;;4.27;1.30;;;10.40;99.90;;;;;;4993421;28;20215;-86
2023/01/05 06:32:13;;;;;;;2.50;1.10;;;10.40;99.90;;;;;;4988492;28;20199;-84
2023/01/05 06:34:38;;;;;;;4.00;1.40;;;10.40;99.90;;;;;;4985924;28;20191;-87
2023/01/05 06:37:05;;;;;;;6.20;1.13;;;10.40;99.90;;;;;;4983628;28;20190;-84
2023/01/05 06:39:30;;;;;;;6.40;1.35;;;10.40;99.90;;;;;;4982933;28;20253;-85
2023/01/05 06:41:56;;;;;;;4.87;1.23;;;10.40;99.90;;;;;;4981866;28;20723;-81
2023/01/05 06:44:22;;;;;;;5.77;1.40;;;10.40;99.90;;;;;;4962471;28;20685;-82
2023/01/05 06:46:47;;;;;;;11.43;3.00;;;10.40;99.90;;;;;;4998202;28;20218;-82
2023/01/05 06:49:13;;;;;;;4.43;1.47;;;10.40;99.90;;;;;;4982022;28;20327;-87
2023/01/05 06:51:39;;;;;;;6.97;1.73;;;10.40;99.90;;;;;;4982451;28;20195;-87
2023/01/05 06:54:05;;;;;;;12.30;2.37;;;10.40;99.90;;;;;;4981613;28;20176;-83
2023/01/05 06:56:30;;;;;;;5.40;1.05;;;10.30;99.90;;;;;;4979432;28;20175;-83
2023/01/05 06:58:56;;;;;;;6.23;1.40;;;10.30;99.90;;;;;;4980990;28;20265;-84
2023/01/05 07:01:21;;;;;;;8.43;1.23;;;10.30;99.90;;;;;;4982172;28;20172;-86
2023/01/05 07:03:47;;;;;;;6.30;1.27;;;10.30;99.90;;;;;;4984505;28;20824;-84
2023/01/05 07:06:14;;;;;;;5.80;1.40;;;10.20;99.90;;;;;;4977519;28;20183;-85
2023/01/05 07:08:39;;;;;;;5.85;1.48;;;10.20;99.90;;;;;;4981796;28;20210;-86
2023/01/05 07:11:05;;;;;;;4.13;1.43;;;10.20;99.90;;;;;;4982713;28;20195;-84
2023/01/05 07:13:30;;;;;;;7.70;1.70;;;10.20;99.90;;;;;;4996948;28;20207;-83
2023/01/05 07:15:56;;;;;;;7.87;1.77;;;10.20;99.90;;;;;;4981157;28;20223;-86
2023/01/05 07:18:21;;;;;;;2.80;1.30;;;10.20;99.90;;;;;;4973349;28;20290;-84
2023/01/05 07:20:46;;;;;;;6.20;1.57;;;10.20;99.90;;;;;;4989361;28;20197;-85
2023/01/05 07:23:12;;;;;;;3.10;1.23;;;10.20;99.90;;;;;;4968912;28;20187;-84
2023/01/05 07:25:37;;;;;;;7.80;1.50;;;10.20;99.90;;;;;;4973387;28;20180;-84
2023/01/05 07:28:03;;;;;;;7.10;2.50;;;10.20;99.90;;;;;;4984408;28;20232;-85
2023/01/05 07:30:29;;;;;;;3.47;1.60;;;10.20;99.90;;;;;;4984619;28;20254;-84
2023/01/05 07:33:00;;;;;;;2.30;1.13;;;10.20;99.90;;;;;;4982767;28;20869;-84
2023/01/05 07:35:27;;;;;;;6.82;2.15;;;10.30;99.90;;;;;;4994094;28;20200;-83
2023/01/05 07:37:55;;;;;;;5.28;2.42;;;10.30;99.90;;;;;;4985312;28;20286;-83
2023/01/05 07:40:21;;;;;;;4.35;2.00;;;10.40;99.90;;;;;;4984028;28;20176;-85
2023/01/05 07:42:51;;;;;;;8.43;1.97;;;10.40;99.90;;;;;;4994662;28;20176;-79
2023/01/05 07:45:17;;;;;;;8.02;1.90;;;10.40;99.90;;;;;;4996287;28;20188;-85
2023/01/05 07:47:43;;;;;;;7.88;1.95;;;10.40;99.90;;;;;;4987668;28;20245;-87
2023/01/05 07:50:08;;;;;;;3.27;1.67;;;10.40;99.90;;;;;;4989059;28;20176;-81
2023/01/05 07:52:34;;;;;;;7.03;1.43;;;10.40;99.90;;;;;;4990508;28;20219;-84
2023/01/05 07:54:59;;;;;;;4.53;2.17;;;10.40;99.90;;;;;;4987708;28;20191;-82
2023/01/05 07:57:25;;;;;;;7.50;2.27;;;10.40;99.90;;;;;;4987798;28;20207;-82
2023/01/05 07:59:50;;;;;;;5.97;1.27;;;10.40;99.90;;;;;;4970048;28;20191;-84
2023/01/05 08:02:16;;;;;;;5.73;1.60;;;10.40;99.90;;;;;;4974271;28;20774;-87
2023/01/05 08:04:41;;;;;;;5.37;1.83;;;10.40;99.90;;;;;;4971860;28;20184;-84
2023/01/05 08:07:10;;;;;;;4.47;2.03;;;10.40;99.90;;;;;;4985432;28;20249;-85
2023/01/05 08:12:20;;;;;;;6.43;1.58;;;10.40;99.90;;;;;;4985729;28;20278;-82
2023/01/05 08:14:45;;;;;;;16.10;1.83;;;10.50;99.90;;;;;;4987222;28;20183;-83
2023/01/05 08:17:11;;;;;;;5.60;1.37;;;10.50;99.90;;;;;;4982648;28;20200;-84
2023/01/05 08:19:37;;;;;;;7.70;1.37;;;10.50;99.90;;;;;;4982432;28;20270;-84
2023/01/05 08:22:02;;;;;;;5.07;1.87;;;10.60;99.90;;;;;;4992161;28;20707;-82
2023/01/05 08:24:28;;;;;;;8.90;1.67;;;10.60;99.90;;;;;;4991740;28;20183;-82
2023/01/05 08:26:54;;;;;;;4.70;1.60;;;10.60;99.90;;;;;;4985549;28;20180;-86
2023/01/05 08:29:19;;;;;;;9.40;1.73;;;10.70;99.90;;;;;;5002632;28;20190;-88
2023/01/05 08:31:45;;;;;;;6.80;1.47;;;10.70;99.90;;;;;;4976366;28;20211;-85
2023/01/05 08:34:10;;;;;;;2.63;1.00;;;10.70;99.90;;;;;;4985182;28;20183;-85
2023/01/05 08:36:36;;;;;;;5.33;1.93;;;10.70;99.90;;;;;;4985630;28;20761;-87
2023/01/05 08:39:02;;;;;;;4.10;1.77;;;10.70;99.90;;;;;;4985032;28;20701;-87
2023/01/05 08:41:31;;;;;;;15.50;2.13;;;10.60;99.90;;;;;;4988764;28;20186;-84
2023/01/05 08:43:59;;;;;;;9.68;1.83;;;10.60;99.90;;;;;;4985334;28;20193;-82
2023/01/05 08:46:28;;;;;;;3.60;1.20;;;10.60;99.90;;;;;;4966373;28;20171;-87
2023/01/05 08:48:55;;;;;;;10.50;1.90;;;10.60;99.90;;;;;;4982348;28;20242;-84
2023/01/05 08:51:21;;;;;;;9.85;2.17;;;10.60;99.90;;;;;;4998264;28;20225;-84
2023/01/05 08:53:47;;;;;;;9.40;1.80;;;10.60;99.90;;;;;;4986137;28;20195;-85
2023/01/05 08:56:13;;;;;;;2.95;1.17;;;10.60;99.90;;;;;;5000106;28;20207;-86
2023/01/05 08:58:40;;;;;;;9.90;2.57;;;10.60;99.90;;;;;;4999345;28;20222;-86
2023/01/05 09:01:14;;;;;;;7.75;1.35;;;10.60;99.90;;;;;;4969650;28;20936;-85
2023/01/05 09:03:40;;;;;;;7.60;1.30;;;10.60;99.90;;;;;;4983815;28;20217;-84
2023/01/05 09:06:10;;;;;;;8.13;1.30;;;10.60;99.90;;;;;;4977974;28;20179;-85
2023/01/05 09:08:37;;;;;;;2.95;1.23;;;10.60;99.90;;;;;;4973011;28;20194;-82
2023/01/05 09:11:20;;;;;;;12.43;1.95;;;10.80;99.90;;;;;;4976927;28;21794;-83
2023/01/05 09:13:49;;;;;;;7.15;1.60;;;10.70;99.90;;;;;;4987498;28;20562;-85
2023/01/05 09:16:18;;;;;;;10.27;1.58;;;10.70;99.90;;;;;;5001823;28;20238;-84
2023/01/05 09:18:44;;;;;;;4.88;1.80;;;10.80;99.90;;;;;;4986362;28;20595;-86
2023/01/05 09:21:10;;;;;;;7.77;1.83;;;10.90;99.90;;;;;;4984830;28;20179;-86
2023/01/05 09:23:37;;;;;;;6.97;1.60;;;10.90;99.90;;;;;;4966450;28;20462;-86
2023/01/05 09:26:04;;;;;;;9.98;1.88;;;10.90;99.90;;;;;;4984128;28;20703;-83
2023/01/05 09:28:30;;;;;;;4.93;1.27;;;;;;;;;;4973601;28;20465;-86
2023/01/05 09:30:55;;;;;;;9.70;1.93;;;10.90;99.90;;;;;;4984570;28;20218;-86
2023/01/05 09:33:21;;;;;;;7.03;1.40;;;11.00;99.90;;;;;;4985145;28;20581;-87
2023/01/05 09:35:56;;;;;;;7.93;2.30;;;10.90;99.90;;;;;;4982000;28;20447;-84
2023/01/05 09:38:23;;;;;;;5.70;1.80;;;11.00;99.90;;;;;;4984343;28;20672;-86
2023/01/05 09:40:52;;;;;;;3.45;1.45;;;10.90;99.90;;;;;;4999699;28;20187;-83
2023/01/05 09:43:24;;;;;;;8.30;1.48;;;11.00;99.90;;;;;;5009884;28;20179;-84
2023/01/05 09:45:50;;;;;;;10.57;2.17;;;10.90;99.90;;;;;;4977528;28;20211;-84
2023/01/05 09:48:18;;;;;;;10.70;2.10;;;10.80;99.90;;;;;;4988184;28;20357;-86
2023/01/05 09:50:47;;;;;;;6.18;1.70;;;10.80;99.90;;;;;;4971405;28;20461;-86
2023/01/05 09:53:15;;;;;;;7.60;1.48;;;10.80;99.90;;;;;;4988423;28;20203;-84
2023/01/05 09:55:42;;;;;;;7.60;1.90;;;10.90;99.90;;;;;;4987198;28;20271;-84
2023/01/05 09:58:15;;;;;;;8.50;1.80;;;11.00;99.90;;;;;;4988588;28;20195;-85
2023/01/05 10:00:44;;;;;;;14.35;2.80;;;10.90;99.90;;;;;;4988333;28;20179;-86
2023/01/05 10:03:23;;;;;;;13.15;2.35;;;10.90;99.90;;;;;;4988838;28;20587;-85
2023/01/05 10:05:48;;;;;;;7.07;2.28;;;10.90;99.90;;;;;;4989369;28;20910;-85
2023/01/05 10:08:34;;;;;;;14.47;2.57;;;10.90;99.90;;;;;;4984486;28;20235;-84
2023/01/05 10:14:02;;;;;;;7.50;2.70;;;10.90;99.90;;;;;;4991954;28;20210;-85
2023/01/05 10:16:27;;;;;;;10.85;2.47;;;11.00;99.90;;;;;;4959784;28;20256;-84
2023/01/05 10:18:54;;;;;;;12.40;3.10;;;11.00;99.90;;;;;;4984665;28;20766;-86
2023/01/05 10:21:32;;;;;;;10.80;2.53;;;11.00;99.90;;;;;;4983064;28;20176;-86
2023/01/05 10:24:07;;;;;;;9.35;1.85;;;10.90;99.90;;;;;;4972417;28;20728;-85
2023/01/05 10:26:43;;;;;;;7.05;2.85;;;11.00;99.90;;;;;;4982594;28;20186;-85
2023/01/05 10:29:14;;;;;;;16.20;5.72;;;11.00;99.90;;;;;;4982409;28;20723;-84
2023/01/05 10:31:51;;;;;;;14.60;4.38;;;11.00;99.90;;;;;;4981256;28;20187;-83
2023/01/05 10:34:42;;;;;;;9.88;2.38;;;11.10;99.90;;;;;;4983912;28;20196;-83
2023/01/05 10:37:43;;;;;;;9.32;2.72;;;11.10;99.90;;;;;;4981719;28;20195;-83
2023/01/05 10:40:33;;;;;;;8.25;2.10;;;11.10;99.90;;;;;;4973987;28;20377;-84
2023/01/05 10:43:19;;;;;;;7.88;2.20;;;11.00;99.90;;;;;;4972256;28;20184;-82
2023/01/05 10:45:44;;;;;;;9.93;2.35;;;11.10;99.90;;;;;;4964085;28;20678;-82
2023/01/05 10:48:18;;;;;;;10.57;3.10;;;11.20;99.90;;;;;;4980707;28;20279;-84
2023/01/05 10:50:45;;;;;;;11.70;2.70;;;11.20;99.90;;;;;;4983257;28;20184;-82
2023/01/05 10:53:16;;;;;;;13.27;2.50;;;11.30;99.90;;;;;;4979443;28;20762;-84
2023/01/05 10:56:02;;;;;;;9.77;1.48;;;11.30;99.90;;;;;;4972360;28;20171;-84
2023/01/05 10:58:33;;;;;;;6.55;2.10;;;11.20;99.90;;;;;;4981727;28;20198;-83
2023/01/05 11:01:27;;;;;;;21.23;2.97;;;11.30;99.90;;;;;;4982370;28;20247;-83
2023/01/05 11:04:33;;;;;;;17.35;3.30;;;11.20;99.90;;;;;;4972736;28;20198;-86
2023/01/05 11:07:06;;;;;;;13.20;2.33;;;11.30;99.90;;;;;;4946708;29;20192;-87
2023/01/05 11:09:37;;;;;;;11.05;2.25;;;11.20;99.90;;;;;;4936048;29;20180;-83
2023/01/05 11:12:04;;;;;;;6.85;2.17;;;11.30;99.90;;;;;;4954455;28;20215;-83
2023/01/05 11:14:35;;;;;;;9.40;2.35;;;11.40;99.90;;;;;;4988829;28;20186;-83
2023/01/05 11:17:04;;;;;;;17.08;3.42;;;11.50;99.90;;;;;;4987803;28;20728;-83
2023/01/05 11:19:43;;;;;;;15.38;3.08;;;11.30;99.90;;;;;;4988528;28;20262;-82
2023/01/05 11:22:33;;;;;;;9.63;3.05;;;11.30;99.90;;;;;;4969483;28;20203;-83
2023/01/05 11:25:28;;;;;;;10.63;1.95;;;11.40;99.90;;;;;;4990288;28;20559;-81
2023/01/05 11:28:14;;;;;;;7.82;3.15;;;11.20;99.90;;;;;;5002584;28;20227;-84
2023/01/05 11:30:58;;;;;;;7.13;2.00;;;11.20;99.90;;;;;;4991289;28;20183;-86
2023/01/05 11:33:27;;;;;;;16.65;3.08;;;11.20;99.90;;;;;;4989548;28;20261;-83
2023/01/05 11:35:54;;;;;;;10.55;2.53;;;11.30;99.90;;;;;;4988596;28;20559;-82
2023/01/05 11:38:26;;;;;;;9.40;2.22;;;11.30;99.90;;;;;;4990747;28;20226;-83
2023/01/05 11:40:54;;;;;;;8.57;2.13;;;11.20;99.90;;;;;;4992444;28;20183;-83
2023/01/05 11:43:22;;;;;;;10.10;3.60;;;11.20;99.90;;;;;;4993212;28;20182;-85
2023/01/05 11:45:51;;;;;;;6.25;2.05;;;11.10;99.90;;;;;;4990162;28;20191;-81
2023/01/05 11:48:24;;;;;;;8.93;3.45;;;11.00;99.90;;;;;;4989915;28;20227;-83
2023/01/05 11:50:52;;;;;;;19.50;3.05;;;11.00;99.90;;;;;;4979960;28;20211;-83
2023/01/05 11:53:33;;;;;;;10.55;2.88;;;11.00;99.90;;;;;;4986741;28;20221;-83
2023/01/05 11:56:09;;;;;;;11.57;2.55;;;11.00;99.90;;;;;;4985209;28;20207;-85
2023/01/05 11:58:45;;;;;;;10.95;2.53;;;11.10;99.90;;;;;;4986308;28;20190;-81
2023/01/05 12:01:17;;;;;;;16.60;2.17;;;11.10;99.90;;;;;;4985667;28;20217;-83
2023/01/05 12:03:48;;;;;;;11.32;2.47;;;11.00;99.90;;;;;;4984896;28;20187;-83
2023/01/05 12:06:49;;;;;;;7.95;2.55;;;11.00;99.90;;;;;;4982659;28;20768;-83
2023/01/05 12:09:30;;;;;;;10.68;2.28;;;11.00;99.90;;;;;;4985349;28;20186;-84
2023/01/05 12:12:32;;;;;;;6.30;2.22;;;11.00;99.90;;;;;;4974047;28;20219;-83
2023/01/05 12:15:16;;;;;;;8.48;2.40;;;10.90;99.90;;;;;;4989159;28;21015;-79
2023/01/05 12:18:15;;;;;;;17.35;3.10;;;10.90;99.90;;;;;;5008864;28;20202;-82
2023/01/05 12:20:59;;;;;;;13.07;2.72;;;10.80;99.90;;;;;;4995657;28;20813;-83
2023/01/05 12:23:45;;;;;;;13.98;2.67;;;10.80;99.90;;;;;;4990018;28;20187;-82
2023/01/05 12:26:22;;;;;;;13.68;3.10;;;10.70;99.90;;;;;;4988657;28;20189;-83
2023/01/05 12:28:48;;;;;;;22.42;3.38;;;10.70;99.90;;;;;;4987442;28;20223;-81
2023/01/05 12:31:25;;;;;;;5.33;2.43;;;10.70;99.90;;;;;;4989374;28;20184;-84
2023/01/05 12:34:25;;;;;;;10.60;3.10;;;10.70;99.90;;;;;;4987661;28;20202;-83
2023/01/05 12:37:14;;;;;;;6.63;2.85;;;10.70;99.90;;;;;;4990894;28;20282;-82
2023/01/05 12:39:51;;;;;;;17.88;3.28;;;10.80;99.90;;;;;;4987637;28;20182;-83
2023/01/05 12:42:27;;;;;;;8.30;2.80;;;10.70;99.90;;;;;;4999075;28;20187;-82
2023/01/05 12:45:01;;;;;;;11.70;2.50;;;10.70;99.90;;;;;;5007656;28;20182;-85
2023/01/05 12:47:51;;;;;;;6.68;2.28;;;10.70;99.90;;;;;;4990387;28;20700;-81
2023/01/05 12:50:26;;;;;;;14.65;2.20;;;10.70;99.90;;;;;;4985553;28;20202;-83
2023/01/05 12:53:21;;;;;;;13.07;2.30;;;10.70;99.90;;;;;;4989991;28;20236;-83
2023/01/05 12:55:55;;;;;;;13.95;2.67;;;10.70;99.90;;;;;;4988064;28;20183;-81
2023/01/05 12:58:33;;;;;;;10.63;2.38;;;10.70;99.90;;;;;;4988653;28;20259;-83
2023/01/05 13:01:00;;;;;;;7.20;3.67;;;10.70;99.90;;;;;;4993564;28;20235;-79
2023/01/05 13:03:55;;;;;;;20.23;3.85;;;10.60;99.90;;;;;;5001591;28;20187;-80
2023/01/05 13:06:23;;;;;;;7.07;3.63;;;10.70;99.90;;;;;;4992726;28;20669;-79
2023/01/05 13:09:15;;;;;;;18.20;3.20;;;10.80;99.90;;;;;;4992402;28;20200;-82
2023/01/05 13:11:52;;;;;;;12.98;2.80;;;10.80;99.90;;;;;;4977369;28;20179;-83
2023/01/05 13:14:26;;;;;;;24.00;3.30;;;11.00;99.90;;;;;;4988944;28;20191;-83
2023/01/05 13:17:05;;;;;;;11.18;2.70;;;11.00;99.90;;;;;;4988591;28;20182;-82
2023/01/05 13:19:37;;;;;;;15.02;3.28;;;11.00;99.90;;;;;;4988659;28;20179;-81
2023/01/05 13:22:26;;;;;;;16.05;2.60;;;11.00;99.90;;;;;;4988368;28;20680;-84
2023/01/05 13:24:59;;;;;;;19.67;3.10;;;11.00;99.90;;;;;;4986488;28;20195;-82
2023/01/05 13:27:25;;;;;;;6.68;3.00;;;11.00;99.90;;;;;;4986535;28;20589;-82
2023/01/05 13:29:58;;;;;;;16.37;2.90;;;10.90;99.90;;;;;;4988476;28;20199;-83
2023/01/05 13:32:40;;;;;;;14.27;3.03;;;10.70;99.90;;;;;;4995575;28;20536;-84
2023/01/05 13:35:54;;;;;;;6.50;2.22;;;10.70;99.90;;;;;;4991354;28;20174;-84
2023/01/05 13:38:43;;;;;;;11.30;2.67;;;10.70;99.90;;;;;;4950324;28;21646;-82